Time;durP1;ratioP1;P1;durP2;ratioP2;P2;SDS_P1;SDS_P2;PMS_P1;PMS_P2;Temp;Humidity;BMP_temperature;BMP_pressure;BME280_temperature;BME280_humidity;BME280_pressure;Samples;Min_cycle;Max_cycle;Signal;HPM_P1;HPM_P2
2022/03/05 00:00:55;;;;;;;19.47;8.03;;;-1.70;99.90;;;;;;4940041;28;20216;-76
2022/03/05 00:03:21;;;;;;;20.20;8.70;;;-1.70;99.90;;;;;;4955580;28;20187;-76
2022/03/05 00:05:47;;;;;;;19.23;8.30;;;-1.60;99.90;;;;;;4939587;28;20193;-76
2022/03/05 00:08:13;;;;;;;21.77;9.50;;;-1.80;99.90;;;;;;4958993;28;20208;-76
2022/03/05 00:10:39;;;;;;;19.73;9.10;;;-1.80;99.90;;;;;;4959624;28;20178;-76
2022/03/05 00:13:05;;;;;;;19.00;8.53;;;-1.90;99.90;;;;;;4943209;28;20255;-76
2022/03/05 00:15:31;;;;;;;20.23;9.77;;;-1.80;99.90;;;;;;4959334;28;20643;-76
2022/03/05 00:17:57;;;;;;;21.73;9.20;;;-1.80;99.90;;;;;;4943400;28;20237;-76
2022/03/05 00:20:23;;;;;;;20.37;8.60;;;-1.80;99.90;;;;;;4943230;28;20177;-76
2022/03/05 00:22:53;;;;;;;21.40;9.23;;;-1.70;99.90;;;;;;4943034;28;20180;-76
2022/03/05 00:25:20;;;;;;;23.13;9.37;;;-1.80;99.90;;;;;;4943705;28;20181;-76
2022/03/05 00:27:47;;;;;;;23.03;9.33;;;-1.70;99.90;;;;;;4958874;28;20233;-77
2022/03/05 00:30:12;;;;;;;23.17;9.50;;;-1.80;99.90;;;;;;4943155;28;20185;-76
2022/03/05 00:32:38;;;;;;;18.77;8.67;;;-1.90;99.90;;;;;;4958668;28;20177;-76
2022/03/05 00:35:05;;;;;;;22.43;8.50;;;-2.00;99.90;;;;;;4943119;28;20206;-76
2022/03/05 00:37:32;;;;;;;18.77;7.83;;;-2.00;99.90;;;;;;4958556;28;20205;-76
2022/03/05 00:39:58;;;;;;;17.73;8.30;;;-1.90;99.90;;;;;;4959401;28;20185;-76
2022/03/05 00:42:23;;;;;;;22.30;9.17;;;-2.00;99.90;;;;;;4942773;28;20181;-76
2022/03/05 00:44:49;;;;;;;21.37;8.77;;;-2.10;99.90;;;;;;4927115;28;20178;-76
2022/03/05 00:47:16;;;;;;;21.63;8.57;;;-2.10;99.90;;;;;;4942816;28;20197;-76
2022/03/05 00:49:41;;;;;;;21.20;7.80;;;-2.10;99.90;;;;;;4926893;28;20220;-76
2022/03/05 00:52:07;;;;;;;17.53;8.43;;;-2.10;99.90;;;;;;4926629;28;20192;-76
2022/03/05 00:54:33;;;;;;;21.77;9.20;;;-2.20;99.90;;;;;;4958660;28;20178;-76
2022/03/05 00:56:59;;;;;;;20.57;8.30;;;-2.20;99.90;;;;;;5003344;23;20221;-75
2022/03/05 00:59:24;;;;;;;20.93;8.60;;;-2.20;99.90;;;;;;4958770;28;20176;-75
2022/03/05 01:01:50;;;;;;;19.37;8.07;;;-2.10;99.90;;;;;;4958392;28;20224;-75
2022/03/05 01:04:16;;;;;;;17.53;7.83;;;-2.10;99.90;;;;;;4942762;28;20180;-76
2022/03/05 01:06:41;;;;;;;19.63;8.50;;;-2.20;99.90;;;;;;4958190;28;20197;-76
2022/03/05 01:09:07;;;;;;;18.20;8.73;;;-2.30;99.90;;;;;;4942583;28;20212;-75
2022/03/05 01:11:32;;;;;;;20.17;8.70;;;-2.40;99.90;;;;;;4958256;28;20189;-75
2022/03/05 01:13:58;;;;;;;20.67;9.10;;;-2.40;99.90;;;;;;4958462;28;20176;-75
2022/03/05 01:16:24;;;;;;;20.73;8.60;;;-2.40;99.90;;;;;;4942300;28;20251;-75
2022/03/05 01:18:50;;;;;;;20.33;8.37;;;-2.40;99.90;;;;;;4974145;28;20192;-75
2022/03/05 01:21:15;;;;;;;21.50;8.80;;;-2.40;99.90;;;;;;4974103;28;20184;-75
2022/03/05 01:23:41;;;;;;;22.17;8.53;;;-2.40;99.90;;;;;;4975505;28;20166;-75
2022/03/05 01:26:07;;;;;;;19.47;8.97;;;-2.40;99.90;;;;;;4974234;28;20188;-75
2022/03/05 01:28:33;;;;;;;20.37;8.77;;;-2.30;99.90;;;;;;4942055;28;20211;-76
2022/03/05 01:30:59;;;;;;;21.67;8.63;;;-2.40;99.90;;;;;;4974160;28;20251;-76
2022/03/05 01:33:24;;;;;;;19.70;8.23;;;-2.30;99.90;;;;;;4973967;28;20188;-75
2022/03/05 01:35:50;;;;;;;19.33;8.57;;;-2.30;99.90;;;;;;4973947;28;20618;-75
2022/03/05 01:38:16;;;;;;;21.20;8.50;;;-2.40;99.90;;;;;;4975198;28;20199;-75
2022/03/05 01:40:43;;;;;;;21.93;8.47;;;-2.30;99.90;;;;;;4974058;28;20208;-76
2022/03/05 01:43:09;;;;;;;18.93;8.10;;;-2.50;99.90;;;;;;4957694;28;20657;-75
2022/03/05 01:45:35;;;;;;;20.37;8.80;;;-2.40;99.90;;;;;;4973848;28;20176;-75
2022/03/05 01:48:02;;;;;;;18.37;8.23;;;-2.30;99.90;;;;;;4974814;28;20195;-75
2022/03/05 01:50:28;;;;;;;19.20;8.27;;;-2.20;99.90;;;;;;4957694;28;20700;-76
2022/03/05 01:52:54;;;;;;;18.03;7.83;;;-2.40;99.90;;;;;;4973484;28;20173;-76
2022/03/05 01:55:20;;;;;;;20.23;8.93;;;-2.40;99.90;;;;;;4941492;28;20227;-76
2022/03/05 01:57:45;;;;;;;20.37;7.97;;;-2.40;99.90;;;;;;4957172;28;20209;-76
2022/03/05 02:00:13;;;;;;;19.47;8.00;;;-2.40;99.90;;;;;;4957482;28;20255;-75
2022/03/05 02:02:39;;;;;;;18.03;8.43;;;-2.30;99.90;;;;;;4941445;28;20269;-75
2022/03/05 02:05:05;;;;;;;18.27;7.87;;;-2.40;99.90;;;;;;4973310;28;20177;-75
2022/03/05 02:07:32;;;;;;;20.20;8.23;;;-2.40;99.90;;;;;;4941250;28;20220;-75
2022/03/05 02:09:57;;;;;;;20.03;8.97;;;-2.40;99.90;;;;;;4973368;28;20183;-75
2022/03/05 02:12:31;;;;;;;18.60;8.77;;;-2.40;99.90;;;;;;4957195;28;20180;-75
2022/03/05 02:14:58;;;;;;;17.33;7.77;;;-2.30;99.90;;;;;;4957388;28;20231;-75
2022/03/05 02:17:24;;;;;;;18.50;7.90;;;-2.40;99.90;;;;;;4941475;28;20197;-75
2022/03/05 02:19:50;;;;;;;17.90;8.27;;;-2.70;99.90;;;;;;4957321;28;20235;-75
2022/03/05 02:22:16;;;;;;;17.90;8.20;;;-2.70;99.90;;;;;;4972860;28;20593;-75
2022/03/05 02:24:42;;;;;;;22.00;8.60;;;-2.60;99.90;;;;;;4973066;28;20559;-75
2022/03/05 02:27:08;;;;;;;15.90;7.67;;;-2.60;99.90;;;;;;4956913;28;20661;-75
2022/03/05 02:29:35;;;;;;;16.60;7.70;;;-2.70;99.90;;;;;;4956353;28;20204;-75
2022/03/05 02:32:01;;;;;;;20.73;8.77;;;-2.80;99.90;;;;;;4956515;28;20230;-75
2022/03/05 02:34:27;;;;;;;19.83;7.70;;;-2.80;99.90;;;;;;4956732;28;20176;-75
2022/03/05 02:36:53;;;;;;;19.77;7.87;;;-2.90;99.90;;;;;;4973172;28;20192;-75
2022/03/05 02:39:18;;;;;;;17.63;7.70;;;-2.90;99.90;;;;;;4957126;28;20180;-75
2022/03/05 02:41:44;;;;;;;18.27;8.33;;;-2.80;99.90;;;;;;4956501;28;20192;-75
2022/03/05 02:44:10;;;;;;;20.70;8.30;;;-2.80;99.90;;;;;;4972735;28;20278;-75
2022/03/05 02:46:36;;;;;;;19.57;8.30;;;-2.80;99.90;;;;;;4956545;28;20232;-75
2022/03/05 02:49:03;;;;;;;18.00;8.57;;;-2.80;99.90;;;;;;4972444;28;20259;-75
2022/03/05 02:51:29;;;;;;;19.17;9.27;;;-2.70;99.90;;;;;;4956529;28;20184;-75
2022/03/05 02:53:55;;;;;;;18.53;8.00;;;-2.80;99.90;;;;;;4972757;28;20180;-75
2022/03/05 02:56:21;;;;;;;18.27;7.77;;;-2.80;99.90;;;;;;4956745;28;20287;-75
2022/03/05 02:58:47;;;;;;;20.47;8.60;;;-2.70;99.90;;;;;;4943894;28;20287;-75
2022/03/05 03:01:12;;;;;;;23.20;9.43;;;-2.80;99.90;;;;;;4975730;28;20255;-75
2022/03/05 03:03:38;;;;;;;15.87;7.30;;;-2.80;99.90;;;;;;4959329;28;20184;-76
2022/03/05 03:06:05;;;;;;;19.30;8.87;;;-2.90;99.90;;;;;;4959728;28;20184;-75
2022/03/05 03:08:31;;;;;;;19.27;9.23;;;-2.90;99.90;;;;;;4992738;28;20358;-75
2022/03/05 03:10:57;;;;;;;20.53;8.70;;;-2.80;99.90;;;;;;4975536;28;20274;-75
2022/03/05 03:13:23;;;;;;;17.63;8.30;;;-2.80;99.90;;;;;;4943326;28;20714;-76
2022/03/05 03:15:48;;;;;;;16.47;7.63;;;-2.80;99.90;;;;;;4959373;28;20172;-75
2022/03/05 03:18:17;;;;;;;15.37;7.77;;;-2.90;99.90;;;;;;4943592;28;20212;-75
2022/03/05 03:20:43;;;;;;;20.57;8.40;;;-2.90;99.90;;;;;;4992785;28;20176;-75
2022/03/05 03:23:09;;;;;;;19.13;9.03;;;-2.80;99.90;;;;;;4992452;28;20183;-75
2022/03/05 03:25:34;;;;;;;20.10;8.83;;;-2.80;99.90;;;;;;4959262;28;20234;-75
2022/03/05 03:28:00;;;;;;;17.57;8.43;;;-2.80;99.90;;;;;;4943109;28;20204;-75
2022/03/05 03:30:26;;;;;;;19.80;8.80;;;-2.80;99.90;;;;;;4959171;28;20697;-75
2022/03/05 03:32:51;;;;;;;20.13;8.60;;;-2.80;99.90;;;;;;4943331;28;20180;-75
2022/03/05 03:35:17;;;;;;;21.07;9.17;;;-2.70;99.90;;;;;;4943580;28;20182;-75
2022/03/05 03:37:44;;;;;;;22.57;9.27;;;-2.70;99.90;;;;;;4959235;28;20231;-76
2022/03/05 03:40:12;;;;;;;20.67;8.97;;;-2.70;99.90;;;;;;4943656;28;20566;-75
2022/03/05 03:42:39;;;;;;;19.10;8.30;;;-2.60;99.90;;;;;;4945824;28;20180;-75
2022/03/05 03:45:06;;;;;;;22.33;9.23;;;-2.60;99.90;;;;;;4979082;28;20238;-75
2022/03/05 03:47:32;;;;;;;21.13;8.67;;;-2.60;99.90;;;;;;4978995;28;20203;-75
2022/03/05 03:49:58;;;;;;;19.00;8.13;;;-2.60;99.90;;;;;;4979110;28;20184;-75
2022/03/05 03:52:23;;;;;;;20.27;8.97;;;-2.60;99.90;;;;;;4946927;28;20187;-75
2022/03/05 03:54:50;;;;;;;19.67;8.63;;;-2.50;99.90;;;;;;4947129;28;20184;-75
2022/03/05 03:57:16;;;;;;;23.07;9.77;;;-2.60;99.90;;;;;;4978556;28;20749;-75
2022/03/05 03:59:42;;;;;;;20.13;9.30;;;-2.50;99.90;;;;;;4963101;28;20176;-75
2022/03/05 04:02:08;;;;;;;19.07;8.53;;;-2.60;99.90;;;;;;4962704;28;20267;-75
2022/03/05 04:04:34;;;;;;;20.53;8.70;;;-2.60;99.90;;;;;;4962653;28;20182;-75
2022/03/05 04:09:43;;;;;;;20.37;8.47;;;-2.50;99.90;;;;;;4967934;28;20210;-75
2022/03/05 04:12:09;;;;;;;22.93;9.03;;;-2.60;99.90;;;;;;4962462;28;20183;-75
2022/03/05 04:14:35;;;;;;;21.17;8.33;;;-2.70;99.90;;;;;;4962827;28;20203;-75
2022/03/05 04:17:01;;;;;;;19.00;8.37;;;-2.70;99.90;;;;;;4962580;28;20191;-75
2022/03/05 04:19:27;;;;;;;20.00;9.27;;;-2.80;99.90;;;;;;4962384;28;20194;-75
2022/03/05 04:21:53;;;;;;;20.73;9.00;;;-2.80;99.90;;;;;;4962460;28;20219;-75
2022/03/05 04:24:18;;;;;;;21.87;8.97;;;-2.90;99.90;;;;;;4962363;28;20212;-75
2022/03/05 04:26:44;;;;;;;22.50;9.17;;;-2.90;99.90;;;;;;4946417;28;20199;-75
2022/03/05 04:29:09;;;;;;;17.43;8.37;;;-2.90;99.90;;;;;;4946457;28;20579;-75
2022/03/05 04:31:35;;;;;;;20.80;8.57;;;-2.90;99.90;;;;;;4978398;28;20172;-75
2022/03/05 04:34:00;;;;;;;18.27;8.40;;;-2.90;99.90;;;;;;4978218;28;20622;-75
2022/03/05 04:36:26;;;;;;;18.13;8.40;;;-2.80;99.90;;;;;;4946164;28;20180;-75
2022/03/05 04:38:52;;;;;;;18.23;8.43;;;-2.70;99.90;;;;;;4962370;28;20671;-75
2022/03/05 04:41:17;;;;;;;20.80;8.70;;;-2.70;99.90;;;;;;4945846;28;20275;-75
2022/03/05 04:43:43;;;;;;;19.43;8.73;;;-2.70;99.90;;;;;;4946274;28;20223;-75
2022/03/05 04:46:09;;;;;;;20.50;8.77;;;-2.80;99.90;;;;;;4946150;28;20188;-76
2022/03/05 04:48:34;;;;;;;20.83;9.77;;;-2.80;99.90;;;;;;4945861;28;20214;-75
2022/03/05 04:51:00;;;;;;;21.73;9.50;;;-2.80;99.90;;;;;;4946014;28;20249;-75
2022/03/05 04:53:25;;;;;;;23.73;10.00;;;-2.90;99.90;;;;;;4961290;28;20180;-75
2022/03/05 04:55:51;;;;;;;21.67;9.57;;;-2.90;99.90;;;;;;4977638;28;20211;-75
2022/03/05 04:58:17;;;;;;;23.63;9.40;;;-2.90;99.90;;;;;;4977985;28;20868;-76
2022/03/05 05:00:43;;;;;;;21.20;9.30;;;-2.90;99.90;;;;;;4977959;28;20556;-75
2022/03/05 05:03:09;;;;;;;22.00;9.53;;;-2.90;99.90;;;;;;4995013;28;20183;-75
2022/03/05 05:05:34;;;;;;;19.73;8.27;;;-3.00;99.90;;;;;;4977646;28;20188;-75
2022/03/05 05:08:00;;;;;;;21.97;9.43;;;-3.00;99.90;;;;;;4945504;28;20287;-75
2022/03/05 05:10:26;;;;;;;19.10;8.63;;;-3.00;99.90;;;;;;4945641;28;20640;-75
2022/03/05 05:12:51;;;;;;;17.97;8.30;;;-3.10;99.90;;;;;;4977572;28;20650;-75
2022/03/05 05:15:17;;;;;;;21.57;8.73;;;-3.10;99.90;;;;;;4945531;28;20198;-75
2022/03/05 05:17:43;;;;;;;20.30;8.83;;;-3.10;99.90;;;;;;4961160;28;20199;-75
2022/03/05 05:20:09;;;;;;;21.47;8.73;;;-3.10;99.90;;;;;;4977735;28;20714;-75
2022/03/05 05:22:35;;;;;;;19.57;8.37;;;-3.20;99.90;;;;;;4977328;28;20652;-75
2022/03/05 05:25:02;;;;;;;20.13;8.23;;;-3.20;99.90;;;;;;4994770;28;20172;-75
2022/03/05 05:27:28;;;;;;;20.67;8.77;;;-3.10;99.90;;;;;;4977257;28;20199;-75
2022/03/05 05:29:54;;;;;;;19.03;8.43;;;-3.20;99.90;;;;;;4977173;28;20211;-75
2022/03/05 05:32:19;;;;;;;18.87;8.90;;;-3.10;99.90;;;;;;4960940;28;20184;-75
2022/03/05 05:34:45;;;;;;;18.03;8.47;;;-3.00;99.90;;;;;;4961249;28;20184;-75
2022/03/05 05:37:11;;;;;;;21.93;9.13;;;-3.10;99.90;;;;;;4994622;28;20267;-75
2022/03/05 05:39:37;;;;;;;18.90;8.80;;;-3.30;99.90;;;;;;4977051;28;20191;-75
2022/03/05 05:42:03;;;;;;;19.07;9.13;;;-3.40;99.90;;;;;;4960974;28;20190;-75
2022/03/05 05:44:29;;;;;;;20.77;8.43;;;-3.40;99.90;;;;;;4945204;28;20282;-75
2022/03/05 05:46:54;;;;;;;17.73;8.03;;;-3.40;99.90;;;;;;4945162;28;20299;-75
2022/03/05 05:49:20;;;;;;;18.23;8.33;;;-3.50;99.90;;;;;;4976916;28;20211;-75
2022/03/05 05:51:46;;;;;;;19.97;8.43;;;-3.40;99.90;;;;;;4976822;28;20183;-75
2022/03/05 05:54:12;;;;;;;19.53;9.27;;;-3.40;99.90;;;;;;4976825;28;20172;-75
2022/03/05 05:56:37;;;;;;;20.87;9.10;;;-3.40;99.90;;;;;;4976724;28;20658;-75
2022/03/05 05:59:06;;;;;;;19.50;8.50;;;-3.40;99.90;;;;;;4944795;28;20191;-75
2022/03/05 06:01:32;;;;;;;17.13;8.07;;;-3.40;99.90;;;;;;4944508;28;20184;-75
2022/03/05 06:03:58;;;;;;;16.80;8.07;;;-3.40;99.90;;;;;;4944115;28;20187;-75
2022/03/05 06:06:23;;;;;;;15.83;8.67;;;-3.40;99.90;;;;;;4944559;28;20206;-75
2022/03/05 06:08:50;;;;;;;18.43;8.67;;;-3.40;99.90;;;;;;4961045;28;20207;-75
2022/03/05 06:11:15;;;;;;;20.13;9.07;;;-3.40;99.90;;;;;;4976552;28;20548;-75
2022/03/05 06:13:41;;;;;;;19.47;9.20;;;-3.50;99.90;;;;;;4976705;28;20187;-76
2022/03/05 06:16:07;;;;;;;20.23;9.13;;;-3.50;99.90;;;;;;4993770;28;20183;-75
2022/03/05 06:18:33;;;;;;;18.30;8.90;;;-3.50;99.90;;;;;;4960215;28;20204;-76
2022/03/05 06:20:59;;;;;;;20.30;9.27;;;-3.60;99.90;;;;;;4960139;28;20530;-76
2022/03/05 06:23:25;;;;;;;17.37;8.80;;;-3.50;99.90;;;;;;4960006;28;20199;-76
2022/03/05 06:25:51;;;;;;;17.67;8.60;;;-3.50;99.90;;;;;;4976522;28;20202;-76
2022/03/05 06:28:17;;;;;;;16.13;7.97;;;-3.40;99.90;;;;;;4960397;28;20211;-76
2022/03/05 06:30:43;;;;;;;18.80;8.83;;;-3.50;99.90;;;;;;4976095;28;20178;-76
2022/03/05 06:33:09;;;;;;;15.77;8.60;;;-3.40;99.90;;;;;;4960040;28;20274;-76
2022/03/05 06:35:35;;;;;;;16.43;9.33;;;-3.40;99.90;;;;;;4944205;28;20265;-75
2022/03/05 06:38:01;;;;;;;17.70;8.17;;;-3.30;99.90;;;;;;4975934;28;20223;-75
2022/03/05 06:40:27;;;;;;;16.03;8.33;;;-3.30;99.90;;;;;;4976263;28;20188;-76
2022/03/05 06:42:52;;;;;;;16.13;8.93;;;-3.30;99.90;;;;;;4959685;28;20257;-75
2022/03/05 06:45:18;;;;;;;18.47;9.23;;;-3.30;99.90;;;;;;4943859;28;20187;-75
2022/03/05 06:47:44;;;;;;;19.03;8.53;;;-3.30;99.90;;;;;;4959897;28;20208;-75
2022/03/05 06:50:11;;;;;;;12.83;5.83;;;-3.30;99.90;;;;;;4959996;28;20592;-74
2022/03/05 06:52:37;;;;;;;15.73;7.03;;;-3.00;99.90;;;;;;4975736;28;20271;-74
2022/03/05 06:55:04;;;;;;;17.93;8.93;;;-1.40;99.90;;;;;;4959951;28;20247;-74
2022/03/05 06:57:29;;;;;;;15.23;8.23;;;-0.20;99.90;;;;;;5014111;22;20232;-78
2022/03/05 06:59:55;;;;;;;16.80;9.10;;;0.50;99.90;;;;;;4981586;28;20183;-78
2022/03/05 07:02:21;;;;;;;18.53;9.27;;;0.90;99.90;;;;;;4996214;28;20279;-77
2022/03/05 07:04:47;;;;;;;16.87;9.40;;;0.30;99.90;;;;;;5011991;28;20177;-77
2022/03/05 07:07:13;;;;;;;17.23;9.27;;;-0.20;99.90;;;;;;4996374;28;20241;-77
2022/03/05 07:09:39;;;;;;;20.97;9.67;;;-0.70;99.90;;;;;;4997008;28;20212;-78
2022/03/05 07:12:05;;;;;;;18.87;9.07;;;-1.20;99.90;;;;;;4980996;28;20174;-78
2022/03/05 07:14:31;;;;;;;18.53;9.47;;;-1.40;99.90;;;;;;4996703;28;20256;-77
2022/03/05 07:16:57;;;;;;;21.47;9.67;;;-1.70;99.90;;;;;;5014065;28;20588;-78
2022/03/05 07:19:22;;;;;;;17.27;9.40;;;-1.70;99.90;;;;;;4980945;28;20668;-78
2022/03/05 07:21:48;;;;;;;20.40;9.73;;;-1.70;99.90;;;;;;5012452;28;20190;-80
2022/03/05 07:24:14;;;;;;;21.07;9.80;;;-1.60;99.90;;;;;;4996132;28;20240;-77
2022/03/05 07:26:39;;;;;;;22.70;9.47;;;-1.70;99.90;;;;;;4978528;28;20180;-77
2022/03/05 07:29:06;;;;;;;20.40;9.57;;;-1.70;99.90;;;;;;4994789;28;20242;-77
2022/03/05 07:31:32;;;;;;;19.10;9.27;;;-1.70;99.90;;;;;;5010805;28;20172;-77
2022/03/05 07:33:59;;;;;;;18.97;9.47;;;-1.70;99.90;;;;;;5005347;28;20183;-77
2022/03/05 07:36:24;;;;;;;20.80;9.43;;;-1.70;99.90;;;;;;5025344;28;20186;-77
2022/03/05 07:38:51;;;;;;;18.37;9.27;;;-1.70;99.90;;;;;;5010430;28;20283;-77
2022/03/05 07:41:18;;;;;;;19.67;9.10;;;-1.70;99.90;;;;;;5010964;28;20173;-77
2022/03/05 07:43:44;;;;;;;23.73;10.73;;;-1.70;99.90;;;;;;4994834;28;20179;-77
2022/03/05 07:46:09;;;;;;;22.10;9.93;;;-1.70;99.90;;;;;;5011108;28;20178;-77
2022/03/05 07:48:35;;;;;;;22.40;10.00;;;-1.80;99.90;;;;;;4978490;28;20203;-77
2022/03/05 07:51:02;;;;;;;22.03;10.27;;;-1.70;99.90;;;;;;4994391;28;20203;-75
2022/03/05 07:53:28;;;;;;;21.87;9.80;;;-1.70;99.90;;;;;;5010751;28;20522;-75
2022/03/05 07:55:54;;;;;;;25.57;11.23;;;-1.60;99.90;;;;;;5011001;28;20168;-75
2022/03/05 07:58:20;;;;;;;19.53;9.80;;;-1.50;99.90;;;;;;4978284;28;20325;-75
2022/03/05 08:00:46;;;;;;;22.17;9.60;;;-1.40;99.90;;;;;;4994584;28;20180;-75
2022/03/05 08:03:11;;;;;;;23.10;10.77;;;-1.20;99.90;;;;;;4994360;28;20188;-75
2022/03/05 08:05:37;;;;;;;24.67;11.60;;;-1.10;99.90;;;;;;4994623;28;20192;-75
2022/03/05 08:08:03;;;;;;;25.30;11.37;;;-1.10;99.90;;;;;;4978366;28;20224;-75
2022/03/05 08:10:29;;;;;;;25.23;11.70;;;-1.00;99.90;;;;;;4994539;28;20693;-77
2022/03/05 08:12:55;;;;;;;23.50;10.07;;;-0.90;99.90;;;;;;4978192;28;20181;-77
2022/03/05 08:15:21;;;;;;;21.90;10.37;;;-0.80;99.90;;;;;;5010542;28;20174;-77
2022/03/05 08:17:54;;;;;;;25.73;11.53;;;-0.60;99.90;;;;;;4994979;28;20204;-77
2022/03/05 08:20:21;;;;;;;23.07;11.23;;;-0.60;99.90;;;;;;4994724;28;20169;-77
2022/03/05 08:22:47;;;;;;;22.87;10.60;;;-0.40;99.90;;;;;;4994838;28;20177;-77
2022/03/05 08:25:13;;;;;;;26.00;11.47;;;-0.30;99.90;;;;;;4994332;28;20188;-77
2022/03/05 08:27:39;;;;;;;23.27;10.73;;;-0.20;99.90;;;;;;4994913;28;20201;-77
2022/03/05 08:30:06;;;;;;;22.70;10.93;;;-0.10;99.90;;;;;;4981778;28;20210;-77
2022/03/05 08:32:31;;;;;;;22.87;10.50;;;0.10;99.90;;;;;;5014236;28;20174;-77
2022/03/05 08:34:57;;;;;;;22.77;10.90;;;0.20;99.90;;;;;;5014358;28;20534;-77
2022/03/05 08:37:23;;;;;;;21.33;10.80;;;0.30;99.90;;;;;;4981845;28;20202;-77
2022/03/05 08:39:49;;;;;;;24.53;10.93;;;0.40;99.90;;;;;;5014312;28;20188;-77
2022/03/05 08:42:14;;;;;;;20.53;10.47;;;0.60;99.90;;;;;;4981449;28;20178;-77
2022/03/05 08:44:40;;;;;;;22.40;11.13;;;0.70;99.90;;;;;;4997766;28;20190;-77
2022/03/05 08:47:06;;;;;;;23.17;11.60;;;0.90;99.90;;;;;;4997536;28;20219;-77
2022/03/05 08:49:32;;;;;;;23.00;11.10;;;1.10;99.90;;;;;;4997806;28;20213;-77
2022/03/05 08:51:57;;;;;;;21.27;10.43;;;1.30;99.90;;;;;;4997630;28;20174;-77
2022/03/05 08:54:25;;;;;;;22.67;10.57;;;1.40;99.90;;;;;;4981641;28;20258;-77
2022/03/05 08:56:51;;;;;;;22.43;11.63;;;1.60;99.90;;;;;;5000089;28;20207;-77
2022/03/05 08:59:17;;;;;;;24.70;11.90;;;1.70;99.90;;;;;;5000962;28;20277;-77
2022/03/05 09:01:43;;;;;;;22.80;11.37;;;1.80;99.90;;;;;;5000568;28;20284;-77
2022/03/05 09:04:08;;;;;;;24.13;11.90;;;2.00;99.90;;;;;;5000792;28;20188;-77
2022/03/05 09:06:34;;;;;;;19.70;10.83;;;2.10;99.90;;;;;;4984913;28;20213;-78
2022/03/05 09:09:00;;;;;;;19.97;10.97;;;2.30;99.90;;;;;;5017325;28;20190;-78
2022/03/05 09:11:26;;;;;;;18.80;10.73;;;2.50;99.90;;;;;;5017135;28;20654;-78
2022/03/05 09:13:52;;;;;;;20.50;10.70;;;2.70;99.90;;;;;;5001163;28;20178;-78
2022/03/05 09:16:18;;;;;;;20.77;11.13;;;2.90;99.90;;;;;;5018061;28;20527;-78
2022/03/05 09:18:44;;;;;;;17.97;9.97;;;3.00;99.90;;;;;;4985676;28;20697;-78
2022/03/05 09:21:09;;;;;;;22.07;11.37;;;3.20;99.90;;;;;;5001547;28;20188;-78
2022/03/05 09:23:35;;;;;;;20.00;10.57;;;3.20;99.90;;;;;;5017952;28;20172;-78
2022/03/05 09:26:01;;;;;;;17.47;10.33;;;3.20;99.90;;;;;;5001730;28;20269;-78
2022/03/05 09:28:27;;;;;;;19.77;10.37;;;3.40;99.90;;;;;;5001970;28;20202;-78
2022/03/05 09:30:52;;;;;;;18.07;9.70;;;3.50;99.90;;;;;;5001988;28;20317;-78
2022/03/05 09:33:21;;;;;;;18.83;10.77;;;3.70;99.90;;;;;;5002485;28;20179;-78
2022/03/05 09:35:46;;;;;;;19.10;10.07;;;3.70;99.90;;;;;;5018745;28;20179;-78
2022/03/05 09:38:12;;;;;;;17.33;10.00;;;3.80;99.90;;;;;;4985816;28;20199;-78
2022/03/05 09:40:38;;;;;;;15.90;9.53;;;3.90;99.90;;;;;;5001925;28;20176;-78
2022/03/05 09:43:04;;;;;;;19.60;9.77;;;4.00;99.90;;;;;;5018081;28;20183;-79
2022/03/05 09:45:30;;;;;;;17.60;10.23;;;4.20;99.90;;;;;;4986051;28;20656;-78
2022/03/05 09:47:56;;;;;;;15.50;9.47;;;4.20;99.90;;;;;;5001882;28;20684;-78
2022/03/05 09:50:24;;;;;;;14.97;9.03;;;4.20;99.90;;;;;;4985705;28;20658;-78
2022/03/05 09:52:50;;;;;;;15.53;9.00;;;4.40;99.90;;;;;;4986388;28;20260;-78
2022/03/05 09:55:16;;;;;;;14.97;8.40;;;4.60;99.90;;;;;;4985990;28;20189;-78
2022/03/05 09:57:42;;;;;;;15.50;8.83;;;4.70;99.90;;;;;;4986080;28;20303;-78
2022/03/05 10:00:08;;;;;;;17.27;9.77;;;4.90;99.90;;;;;;5002847;28;20631;-78
2022/03/05 10:02:34;;;;;;;15.67;9.53;;;5.10;99.90;;;;;;5018987;28;20184;-78
2022/03/05 10:05:21;;;;;;;14.90;9.07;;;5.30;99.90;;;;;;5002908;28;20182;-78
2022/03/05 10:08:01;;;;;;;14.83;8.37;;;5.40;99.90;;;;;;5002814;28;20201;-78
2022/03/05 10:10:28;;;;;;;13.67;8.43;;;5.40;99.90;;;;;;5018948;28;20235;-78
2022/03/05 10:12:54;;;;;;;14.83;8.83;;;5.60;99.90;;;;;;5019070;28;20170;-78
2022/03/05 10:15:21;;;;;;;14.87;8.70;;;5.70;99.90;;;;;;5003427;28;20272;-78
2022/03/05 10:17:48;;;;;;;14.47;8.70;;;6.00;99.90;;;;;;5018789;28;20190;-78
2022/03/05 10:20:14;;;;;;;14.63;8.73;;;6.20;99.90;;;;;;5018562;28;20171;-78
2022/03/05 10:22:55;;;;;;;14.37;9.07;;;6.30;99.90;;;;;;4985922;28;20174;-78
2022/03/05 10:25:29;;;;;;;14.87;8.73;;;6.30;99.90;;;;;;5018352;28;20631;-79
2022/03/05 10:28:19;;;;;;;17.93;9.33;;;6.60;99.90;;;;;;4996038;28;20206;-76
2022/03/05 10:30:50;;;;;;;14.10;9.20;;;6.30;99.90;;;;;;4993241;28;20246;-76
2022/03/05 10:33:30;;;;;;;13.17;8.40;;;6.30;99.90;;;;;;4999072;28;20175;-76
2022/03/05 10:36:01;;;;;;;11.87;7.70;;;6.10;99.90;;;;;;5015199;28;20546;-76
2022/03/05 10:38:53;;;;;;;11.90;7.57;;;6.00;99.90;;;;;;5015333;28;20191;-76
2022/03/05 10:41:40;;;;;;;12.73;7.60;;;5.60;99.90;;;;;;5015034;28;20185;-76
2022/03/05 10:44:15;;;;;;;15.17;8.90;;;5.50;99.90;;;;;;4985369;28;20201;-76
2022/03/05 10:47:00;;;;;;;17.43;8.70;;;5.30;99.90;;;;;;4999161;28;20178;-76
2022/03/05 10:49:37;;;;;;;15.63;8.47;;;5.20;99.90;;;;;;4998764;28;20194;-74
2022/03/05 10:52:02;;;;;;;14.40;8.30;;;5.20;99.90;;;;;;4999393;28;20270;-76
2022/03/05 10:54:40;;;;;;;14.83;8.30;;;5.20;99.90;;;;;;5016078;28;20193;-75
2022/03/05 10:57:24;;;;;;;11.77;7.37;;;5.30;99.90;;;;;;5001499;28;20293;-75
2022/03/05 10:59:54;;;;;;;14.67;8.50;;;5.40;99.90;;;;;;5001103;28;20385;-75
2022/03/05 11:02:21;;;;;;;13.00;7.10;;;5.40;99.90;;;;;;5015512;28;20859;-75
2022/03/05 11:04:48;;;;;;;12.80;8.00;;;5.40;99.90;;;;;;5015922;28;20170;-79
2022/03/05 11:07:19;;;;;;;13.90;7.57;;;5.50;99.90;;;;;;5001332;28;20214;-79
2022/03/05 11:09:47;;;;;;;12.50;7.97;;;5.80;99.90;;;;;;5002257;28;20210;-78
2022/03/05 11:12:17;;;;;;;12.73;7.93;;;6.30;99.90;;;;;;5000799;28;20599;-77
2022/03/05 11:14:47;;;;;;;12.67;7.77;;;6.40;99.90;;;;;;4984395;28;20265;-78
2022/03/05 11:17:14;;;;;;;18.97;10.70;;;6.50;99.90;;;;;;5018616;28;20705;-80
2022/03/05 11:19:40;;;;;;;12.77;7.90;;;6.50;99.90;;;;;;5001576;28;20183;-80
2022/03/05 11:22:08;;;;;;;10.63;6.53;;;6.20;99.90;;;;;;5017824;28;20182;-79
2022/03/05 11:24:38;;;;;;;10.07;6.47;;;6.40;99.90;;;;;;5001003;28;20209;-79
2022/03/05 11:27:04;;;;;;;9.63;5.97;;;6.60;99.90;;;;;;5017259;28;20293;-79
2022/03/05 11:29:49;;;;;;;10.97;7.13;;;6.40;99.90;;;;;;4984561;28;20619;-79
2022/03/05 11:32:15;;;;;;;10.17;7.17;;;6.80;99.90;;;;;;5017224;28;20170;-79
2022/03/05 11:34:46;;;;;;;10.47;6.50;;;7.40;99.90;;;;;;4984670;28;20608;-79
2022/03/05 11:37:17;;;;;;;9.67;6.40;;;7.90;99.90;;;;;;5016545;28;20225;-79
2022/03/05 11:39:43;;;;;;;9.40;6.33;;;8.10;97.70;;;;;;5000810;28;20409;-79
2022/03/05 11:42:09;;;;;;;10.10;6.60;;;8.30;97.10;;;;;;5000388;28;20177;-79
2022/03/05 11:44:43;;;;;;;8.90;5.93;;;8.10;96.40;;;;;;4984377;28;20180;-79
2022/03/05 11:47:18;;;;;;;7.83;5.57;;;8.20;96.10;;;;;;5016749;28;20201;-79
2022/03/05 11:49:59;;;;;;;9.63;5.97;;;8.00;94.50;;;;;;5016609;28;20212;-79
2022/03/05 11:52:39;;;;;;;7.77;5.67;;;8.00;95.40;;;;;;5016330;28;20223;-79
2022/03/05 11:55:11;;;;;;;9.47;6.13;;;8.30;93.30;;;;;;5016826;28;20178;-79
2022/03/05 11:57:38;;;;;;;8.57;5.57;;;8.60;93.00;;;;;;5016697;28;20217;-79
2022/03/05 12:00:04;;;;;;;8.23;5.43;;;9.00;94.20;;;;;;5000161;28;20557;-79
2022/03/05 12:02:43;;;;;;;7.87;5.53;;;9.20;90.00;;;;;;5000288;28;20210;-79
2022/03/05 12:05:09;;;;;;;8.50;5.40;;;9.40;90.10;;;;;;5004065;28;20669;-80
2022/03/05 12:07:40;;;;;;;7.47;5.50;;;9.40;87.30;;;;;;4988257;28;20228;-80
2022/03/05 12:10:14;;;;;;;9.80;5.63;;;9.00;85.70;;;;;;5000125;28;20210;-80
2022/03/05 12:12:55;;;;;;;10.07;6.23;;;8.90;87.70;;;;;;4999049;28;20671;-80
2022/03/05 12:15:33;;;;;;;8.13;5.63;;;8.40;88.40;;;;;;5003522;28;20171;-80
2022/03/05 12:18:02;;;;;;;8.87;6.00;;;8.10;90.40;;;;;;5020315;28;20285;-80
2022/03/05 12:20:34;;;;;;;9.57;6.13;;;8.00;92.40;;;;;;5004678;28;20651;-80
2022/03/05 12:23:08;;;;;;;8.17;5.90;;;7.90;91.50;;;;;;5003770;28;20182;-80
2022/03/05 12:25:44;;;;;;;8.73;6.27;;;8.00;92.70;;;;;;5003789;28;20657;-80
2022/03/05 12:28:15;;;;;;;8.73;6.23;;;8.10;94.00;;;;;;5003645;28;20201;-80
2022/03/05 12:30:41;;;;;;;9.23;6.70;;;8.00;94.80;;;;;;5003772;28;20178;-80
2022/03/05 12:33:10;;;;;;;8.77;6.03;;;8.00;95.70;;;;;;5020170;28;20642;-80
2022/03/05 12:35:36;;;;;;;8.93;6.27;;;7.90;98.00;;;;;;5019764;28;20197;-80
2022/03/05 12:38:03;;;;;;;9.97;6.53;;;7.80;95.00;;;;;;5004489;28;20199;-81
2022/03/05 12:40:33;;;;;;;9.53;6.57;;;7.40;95.40;;;;;;5020510;28;20185;-81
2022/03/05 12:43:00;;;;;;;9.53;5.80;;;7.50;97.90;;;;;;5019714;28;20174;-81